sensor_id;sensor_type;location;lat;lon;timestamp;P1;durP1;ratioP1;P2;durP2;ratioP2
10731;SDS011;74907;42.812;23.216;2024-01-07T00:00:25;49.73;;;31.53;;
10731;SDS011;74907;42.812;23.216;2024-01-07T00:02:52;41.50;;;28.87;;
10731;SDS011;74907;42.812;23.216;2024-01-07T00:05:20;30.90;;;23.00;;
10731;SDS011;74907;42.812;23.216;2024-01-07T00:07:47;21.60;;;17.30;;
10731;SDS011;74907;42.812;23.216;2024-01-07T00:10:15;19.73;;;16.43;;
10731;SDS011;74907;42.812;23.216;2024-01-07T00:12:43;20.70;;;16.20;;
10731;SDS011;74907;42.812;23.216;2024-01-07T00:15:10;23.50;;;16.53;;
10731;SDS011;74907;42.812;23.216;2024-01-07T00:20:14;18.13;;;15.63;;
10731;SDS011;74907;42.812;23.216;2024-01-07T00:22:42;19.63;;;16.07;;
10731;SDS011;74907;42.812;23.216;2024-01-07T00:25:09;19.37;;;16.50;;
10731;SDS011;74907;42.812;23.216;2024-01-07T00:27:36;20.27;;;15.80;;
10731;SDS011;74907;42.812;23.216;2024-01-07T00:30:03;18.43;;;14.93;;
10731;SDS011;74907;42.812;23.216;2024-01-07T00:32:31;17.00;;;15.20;;
10731;SDS011;74907;42.812;23.216;2024-01-07T00:34:58;19.37;;;15.57;;
10731;SDS011;74907;42.812;23.216;2024-01-07T00:37:38;20.30;;;16.43;;
10731;SDS011;74907;42.812;23.216;2024-01-07T00:40:07;17.70;;;15.80;;
10731;SDS011;74907;42.812;23.216;2024-01-07T00:42:35;19.87;;;15.83;;
10731;SDS011;74907;42.812;23.216;2024-01-07T00:45:01;16.87;;;14.70;;
10731;SDS011;74907;42.812;23.216;2024-01-07T00:47:28;19.00;;;15.60;;
10731;SDS011;74907;42.812;23.216;2024-01-07T00:53:01;23.50;;;18.97;;
10731;SDS011;74907;42.812;23.216;2024-01-07T00:55:29;25.10;;;20.27;;
10731;SDS011;74907;42.812;23.216;2024-01-07T00:57:56;25.67;;;19.83;;
10731;SDS011;74907;42.812;23.216;2024-01-07T01:00:31;21.00;;;18.10;;
10731;SDS011;74907;42.812;23.216;2024-01-07T01:02:58;24.20;;;17.80;;
10731;SDS011;74907;42.812;23.216;2024-01-07T01:05:25;22.37;;;18.17;;
10731;SDS011;74907;42.812;23.216;2024-01-07T01:07:52;22.90;;;18.67;;
10731;SDS011;74907;42.812;23.216;2024-01-07T01:10:19;23.87;;;17.97;;
10731;SDS011;74907;42.812;23.216;2024-01-07T01:12:48;21.33;;;17.20;;
10731;SDS011;74907;42.812;23.216;2024-01-07T01:15:15;22.70;;;18.17;;
10731;SDS011;74907;42.812;23.216;2024-01-07T01:17:42;20.57;;;16.43;;
10731;SDS011;74907;42.812;23.216;2024-01-07T01:20:09;20.40;;;17.00;;
10731;SDS011;74907;42.812;23.216;2024-01-07T01:22:37;24.77;;;18.57;;
10731;SDS011;74907;42.812;23.216;2024-01-07T01:25:06;23.93;;;17.63;;
10731;SDS011;74907;42.812;23.216;2024-01-07T01:27:33;22.90;;;18.07;;
10731;SDS011;74907;42.812;23.216;2024-01-07T01:30:01;24.10;;;18.23;;
10731;SDS011;74907;42.812;23.216;2024-01-07T01:32:28;21.93;;;16.37;;
10731;SDS011;74907;42.812;23.216;2024-01-07T01:34:55;25.53;;;19.07;;
10731;SDS011;74907;42.812;23.216;2024-01-07T01:37:22;22.07;;;16.80;;
10731;SDS011;74907;42.812;23.216;2024-01-07T01:39:49;25.27;;;17.20;;
10731;SDS011;74907;42.812;23.216;2024-01-07T01:42:16;23.10;;;16.77;;
10731;SDS011;74907;42.812;23.216;2024-01-07T01:44:43;23.50;;;16.77;;
10731;SDS011;74907;42.812;23.216;2024-01-07T01:47:11;18.63;;;16.47;;
10731;SDS011;74907;42.812;23.216;2024-01-07T01:49:38;21.10;;;16.93;;
10731;SDS011;74907;42.812;23.216;2024-01-07T01:52:06;25.37;;;16.90;;
10731;SDS011;74907;42.812;23.216;2024-01-07T01:54:33;20.33;;;16.07;;
10731;SDS011;74907;42.812;23.216;2024-01-07T01:57:00;22.10;;;16.67;;
10731;SDS011;74907;42.812;23.216;2024-01-07T01:59:27;24.60;;;17.97;;
10731;SDS011;74907;42.812;23.216;2024-01-07T02:01:55;22.27;;;16.60;;
10731;SDS011;74907;42.812;23.216;2024-01-07T02:04:23;23.40;;;16.97;;
10731;SDS011;74907;42.812;23.216;2024-01-07T02:06:50;22.50;;;16.60;;
10731;SDS011;74907;42.812;23.216;2024-01-07T02:09:17;21.10;;;16.93;;
10731;SDS011;74907;42.812;23.216;2024-01-07T02:11:48;17.87;;;15.97;;
10731;SDS011;74907;42.812;23.216;2024-01-07T02:14:26;23.07;;;17.07;;
10731;SDS011;74907;42.812;23.216;2024-01-07T02:16:53;22.20;;;17.20;;
10731;SDS011;74907;42.812;23.216;2024-01-07T02:19:20;21.23;;;17.13;;
10731;SDS011;74907;42.812;23.216;2024-01-07T02:21:51;22.60;;;18.40;;
10731;SDS011;74907;42.812;23.216;2024-01-07T02:24:19;22.97;;;17.03;;
10731;SDS011;74907;42.812;23.216;2024-01-07T02:26:46;24.50;;;18.67;;
10731;SDS011;74907;42.812;23.216;2024-01-07T02:29:20;24.93;;;19.10;;
10731;SDS011;74907;42.812;23.216;2024-01-07T02:31:47;23.97;;;18.67;;
10731;SDS011;74907;42.812;23.216;2024-01-07T02:34:14;25.03;;;19.83;;
10731;SDS011;74907;42.812;23.216;2024-01-07T02:36:41;33.43;;;25.83;;
10731;SDS011;74907;42.812;23.216;2024-01-07T02:39:08;36.57;;;25.40;;
10731;SDS011;74907;42.812;23.216;2024-01-07T02:41:36;26.17;;;21.80;;
10731;SDS011;74907;42.812;23.216;2024-01-07T02:44:11;24.93;;;19.83;;
10731;SDS011;74907;42.812;23.216;2024-01-07T02:46:38;23.10;;;18.90;;
10731;SDS011;74907;42.812;23.216;2024-01-07T02:49:05;24.07;;;18.87;;
10731;SDS011;74907;42.812;23.216;2024-01-07T02:51:32;20.43;;;17.50;;
10731;SDS011;74907;42.812;23.216;2024-01-07T02:53:59;19.90;;;16.07;;
10731;SDS011;74907;42.812;23.216;2024-01-07T02:56:26;20.00;;;16.30;;
10731;SDS011;74907;42.812;23.216;2024-01-07T02:58:54;19.80;;;16.30;;
10731;SDS011;74907;42.812;23.216;2024-01-07T03:01:21;17.80;;;14.83;;
10731;SDS011;74907;42.812;23.216;2024-01-07T03:03:50;16.60;;;14.87;;
10731;SDS011;74907;42.812;23.216;2024-01-07T03:06:17;15.83;;;14.23;;
10731;SDS011;74907;42.812;23.216;2024-01-07T03:08:44;30.60;;;15.57;;
10731;SDS011;74907;42.812;23.216;2024-01-07T03:11:11;16.47;;;14.50;;
10731;SDS011;74907;42.812;23.216;2024-01-07T03:13:37;18.67;;;14.47;;
10731;SDS011;74907;42.812;23.216;2024-01-07T03:16:07;16.73;;;14.17;;
10731;SDS011;74907;42.812;23.216;2024-01-07T03:18:34;15.23;;;13.63;;
10731;SDS011;74907;42.812;23.216;2024-01-07T03:21:01;15.07;;;12.27;;
10731;SDS011;74907;42.812;23.216;2024-01-07T03:23:28;12.67;;;11.37;;
10731;SDS011;74907;42.812;23.216;2024-01-07T03:25:57;11.27;;;10.07;;
10731;SDS011;74907;42.812;23.216;2024-01-07T03:28:24;12.13;;;8.97;;
10731;SDS011;74907;42.812;23.216;2024-01-07T03:30:51;10.50;;;9.37;;
10731;SDS011;74907;42.812;23.216;2024-01-07T03:33:19;9.60;;;8.43;;
10731;SDS011;74907;42.812;23.216;2024-01-07T03:35:46;10.43;;;9.33;;
10731;SDS011;74907;42.812;23.216;2024-01-07T03:38:13;9.53;;;8.63;;
10731;SDS011;74907;42.812;23.216;2024-01-07T03:40:40;11.90;;;9.47;;
10731;SDS011;74907;42.812;23.216;2024-01-07T03:43:07;10.53;;;9.53;;
10731;SDS011;74907;42.812;23.216;2024-01-07T03:45:34;9.67;;;8.87;;
10731;SDS011;74907;42.812;23.216;2024-01-07T03:48:01;10.23;;;9.13;;
10731;SDS011;74907;42.812;23.216;2024-01-07T03:50:30;11.67;;;10.43;;
10731;SDS011;74907;42.812;23.216;2024-01-07T03:52:57;12.23;;;10.87;;
10731;SDS011;74907;42.812;23.216;2024-01-07T03:55:24;12.40;;;11.07;;
10731;SDS011;74907;42.812;23.216;2024-01-07T03:57:50;13.73;;;11.70;;
10731;SDS011;74907;42.812;23.216;2024-01-07T04:00:17;16.70;;;13.53;;
10731;SDS011;74907;42.812;23.216;2024-01-07T04:02:44;15.97;;;14.37;;
10731;SDS011;74907;42.812;23.216;2024-01-07T04:05:11;15.93;;;14.17;;
10731;SDS011;74907;42.812;23.216;2024-01-07T04:07:41;16.63;;;14.63;;
10731;SDS011;74907;42.812;23.216;2024-01-07T04:10:08;16.13;;;14.40;;
10731;SDS011;74907;42.812;23.216;2024-01-07T04:12:36;14.37;;;12.87;;
10731;SDS011;74907;42.812;23.216;2024-01-07T04:15:03;13.90;;;12.17;;
10731;SDS011;74907;42.812;23.216;2024-01-07T04:17:30;13.20;;;11.87;;
10731;SDS011;74907;42.812;23.216;2024-01-07T04:19:57;12.33;;;11.13;;
10731;SDS011;74907;42.812;23.216;2024-01-07T04:22:24;12.80;;;10.47;;
10731;SDS011;74907;42.812;23.216;2024-01-07T04:24:52;13.77;;;11.17;;
10731;SDS011;74907;42.812;23.216;2024-01-07T04:27:19;15.53;;;10.83;;
10731;SDS011;74907;42.812;23.216;2024-01-07T04:29:46;12.20;;;10.63;;
10731;SDS011;74907;42.812;23.216;2024-01-07T04:32:13;14.10;;;11.37;;
10731;SDS011;74907;42.812;23.216;2024-01-07T04:34:40;13.13;;;11.37;;
10731;SDS011;74907;42.812;23.216;2024-01-07T04:37:07;11.77;;;10.67;;
10731;SDS011;74907;42.812;23.216;2024-01-07T04:39:34;13.40;;;9.57;;
10731;SDS011;74907;42.812;23.216;2024-01-07T04:42:02;13.87;;;10.17;;
10731;SDS011;74907;42.812;23.216;2024-01-07T04:44:29;12.20;;;9.33;;
10731;SDS011;74907;42.812;23.216;2024-01-07T04:46:56;11.67;;;9.03;;
10731;SDS011;74907;42.812;23.216;2024-01-07T04:52:18;11.67;;;8.93;;
10731;SDS011;74907;42.812;23.216;2024-01-07T04:54:45;9.23;;;8.30;;
10731;SDS011;74907;42.812;23.216;2024-01-07T04:57:13;11.77;;;9.57;;
10731;SDS011;74907;42.812;23.216;2024-01-07T04:59:40;14.20;;;9.60;;
10731;SDS011;74907;42.812;23.216;2024-01-07T05:02:07;11.60;;;10.37;;
10731;SDS011;74907;42.812;23.216;2024-01-07T05:04:34;11.00;;;9.87;;
10731;SDS011;74907;42.812;23.216;2024-01-07T05:07:02;10.60;;;8.60;;
10731;SDS011;74907;42.812;23.216;2024-01-07T05:09:29;8.33;;;7.63;;
10731;SDS011;74907;42.812;23.216;2024-01-07T05:11:56;8.50;;;7.17;;
10731;SDS011;74907;42.812;23.216;2024-01-07T05:14:24;7.83;;;7.23;;
10731;SDS011;74907;42.812;23.216;2024-01-07T05:16:52;7.03;;;6.53;;
10731;SDS011;74907;42.812;23.216;2024-01-07T05:19:19;7.43;;;6.63;;
10731;SDS011;74907;42.812;23.216;2024-01-07T05:21:46;8.30;;;6.70;;
10731;SDS011;74907;42.812;23.216;2024-01-07T05:24:13;7.93;;;7.23;;
10731;SDS011;74907;42.812;23.216;2024-01-07T05:26:41;9.23;;;8.53;;
10731;SDS011;74907;42.812;23.216;2024-01-07T05:29:08;10.10;;;9.00;;
10731;SDS011;74907;42.812;23.216;2024-01-07T05:31:38;10.30;;;9.40;;
10731;SDS011;74907;42.812;23.216;2024-01-07T05:34:04;10.07;;;8.93;;
10731;SDS011;74907;42.812;23.216;2024-01-07T05:36:31;9.83;;;9.03;;
10731;SDS011;74907;42.812;23.216;2024-01-07T05:38:58;9.57;;;8.63;;
10731;SDS011;74907;42.812;23.216;2024-01-07T05:41:25;10.10;;;9.13;;
10731;SDS011;74907;42.812;23.216;2024-01-07T05:43:52;8.97;;;8.17;;
10731;SDS011;74907;42.812;23.216;2024-01-07T05:46:19;9.10;;;7.87;;
10731;SDS011;74907;42.812;23.216;2024-01-07T05:48:48;9.87;;;8.77;;
10731;SDS011;74907;42.812;23.216;2024-01-07T05:51:15;11.83;;;9.23;;
10731;SDS011;74907;42.812;23.216;2024-01-07T05:53:43;8.57;;;7.77;;
10731;SDS011;74907;42.812;23.216;2024-01-07T05:56:10;9.70;;;8.70;;
10731;SDS011;74907;42.812;23.216;2024-01-07T05:58:37;8.93;;;8.13;;
10731;SDS011;74907;42.812;23.216;2024-01-07T06:01:04;10.83;;;9.83;;
10731;SDS011;74907;42.812;23.216;2024-01-07T06:03:32;10.73;;;9.57;;
10731;SDS011;74907;42.812;23.216;2024-01-07T06:09:06;10.07;;;9.17;;
10731;SDS011;74907;42.812;23.216;2024-01-07T06:11:33;11.63;;;10.33;;
10731;SDS011;74907;42.812;23.216;2024-01-07T06:14:00;11.67;;;10.60;;
10731;SDS011;74907;42.812;23.216;2024-01-07T06:16:27;9.53;;;8.63;;
10731;SDS011;74907;42.812;23.216;2024-01-07T06:18:54;10.53;;;9.47;;
10731;SDS011;74907;42.812;23.216;2024-01-07T06:21:20;10.93;;;9.83;;
10731;SDS011;74907;42.812;23.216;2024-01-07T06:23:47;10.70;;;9.60;;
10731;SDS011;74907;42.812;23.216;2024-01-07T06:26:16;11.37;;;10.00;;
10731;SDS011;74907;42.812;23.216;2024-01-07T06:28:43;11.00;;;9.80;;
10731;SDS011;74907;42.812;23.216;2024-01-07T06:31:10;10.67;;;9.67;;
10731;SDS011;74907;42.812;23.216;2024-01-07T06:33:36;10.80;;;9.70;;
10731;SDS011;74907;42.812;23.216;2024-01-07T06:36:03;8.83;;;7.73;;
10731;SDS011;74907;42.812;23.216;2024-01-07T06:38:30;9.47;;;8.57;;
10731;SDS011;74907;42.812;23.216;2024-01-07T06:40:57;10.57;;;9.47;;
10731;SDS011;74907;42.812;23.216;2024-01-07T06:43:30;9.60;;;8.70;;
10731;SDS011;74907;42.812;23.216;2024-01-07T06:45:57;10.23;;;9.23;;
10731;SDS011;74907;42.812;23.216;2024-01-07T06:48:24;12.37;;;11.00;;
10731;SDS011;74907;42.812;23.216;2024-01-07T06:50:51;17.40;;;13.70;;
10731;SDS011;74907;42.812;23.216;2024-01-07T06:53:17;15.70;;;13.77;;
10731;SDS011;74907;42.812;23.216;2024-01-07T06:55:44;15.17;;;13.53;;
10731;SDS011;74907;42.812;23.216;2024-01-07T06:58:11;15.57;;;12.40;;
10731;SDS011;74907;42.812;23.216;2024-01-07T07:00:39;18.07;;;16.10;;
10731;SDS011;74907;42.812;23.216;2024-01-07T07:03:06;15.40;;;13.90;;
10731;SDS011;74907;42.812;23.216;2024-01-07T07:05:34;11.20;;;10.10;;
10731;SDS011;74907;42.812;23.216;2024-01-07T07:08:01;9.37;;;8.50;;
10731;SDS011;74907;42.812;23.216;2024-01-07T07:10:28;10.80;;;9.80;;
10731;SDS011;74907;42.812;23.216;2024-01-07T07:12:54;10.70;;;9.80;;
10731;SDS011;74907;42.812;23.216;2024-01-07T07:15:21;11.77;;;10.70;;
10731;SDS011;74907;42.812;23.216;2024-01-07T07:17:53;10.03;;;9.13;;
10731;SDS011;74907;42.812;23.216;2024-01-07T07:20:20;9.13;;;8.23;;
10731;SDS011;74907;42.812;23.216;2024-01-07T07:22:47;8.30;;;7.60;;
10731;SDS011;74907;42.812;23.216;2024-01-07T07:25:14;7.27;;;6.60;;
10731;SDS011;74907;42.812;23.216;2024-01-07T07:27:40;6.93;;;6.33;;
10731;SDS011;74907;42.812;23.216;2024-01-07T07:30:08;6.50;;;5.43;;
10731;SDS011;74907;42.812;23.216;2024-01-07T07:32:38;5.13;;;4.73;;
10731;SDS011;74907;42.812;23.216;2024-01-07T07:35:07;7.37;;;6.50;;
10731;SDS011;74907;42.812;23.216;2024-01-07T07:37:34;8.90;;;8.10;;
10731;SDS011;74907;42.812;23.216;2024-01-07T07:40:01;9.57;;;8.63;;
10731;SDS011;74907;42.812;23.216;2024-01-07T07:42:28;9.97;;;9.00;;
10731;SDS011;74907;42.812;23.216;2024-01-07T07:44:54;12.00;;;10.80;;
10731;SDS011;74907;42.812;23.216;2024-01-07T07:47:21;13.57;;;11.37;;
10731;SDS011;74907;42.812;23.216;2024-01-07T07:49:48;17.07;;;13.27;;
10731;SDS011;74907;42.812;23.216;2024-01-07T07:52:16;18.63;;;14.67;;
10731;SDS011;74907;42.812;23.216;2024-01-07T07:54:47;11.80;;;10.33;;
10731;SDS011;74907;42.812;23.216;2024-01-07T07:57:14;7.60;;;6.10;;
10731;SDS011;74907;42.812;23.216;2024-01-07T07:59:41;5.93;;;5.50;;
10731;SDS011;74907;42.812;23.216;2024-01-07T08:02:08;10.33;;;7.07;;
10731;SDS011;74907;42.812;23.216;2024-01-07T08:04:35;10.97;;;9.87;;
10731;SDS011;74907;42.812;23.216;2024-01-07T08:07:02;11.00;;;10.07;;
10731;SDS011;74907;42.812;23.216;2024-01-07T08:09:30;7.63;;;6.10;;
10731;SDS011;74907;42.812;23.216;2024-01-07T08:11:57;6.37;;;5.87;;
10731;SDS011;74907;42.812;23.216;2024-01-07T08:14:23;5.93;;;5.00;;
10731;SDS011;74907;42.812;23.216;2024-01-07T08:16:50;6.40;;;5.90;;
10731;SDS011;74907;42.812;23.216;2024-01-07T08:19:17;7.53;;;6.87;;
10731;SDS011;74907;42.812;23.216;2024-01-07T08:21:45;8.47;;;6.27;;
10731;SDS011;74907;42.812;23.216;2024-01-07T08:24:12;9.53;;;8.70;;
10731;SDS011;74907;42.812;23.216;2024-01-07T08:26:40;9.43;;;6.97;;
10731;SDS011;74907;42.812;23.216;2024-01-07T08:29:07;11.97;;;8.47;;
10731;SDS011;74907;42.812;23.216;2024-01-07T08:31:34;12.40;;;10.20;;
10731;SDS011;74907;42.812;23.216;2024-01-07T08:34:01;13.00;;;10.10;;
10731;SDS011;74907;42.812;23.216;2024-01-07T08:36:28;10.30;;;9.37;;
10731;SDS011;74907;42.812;23.216;2024-01-07T08:38:54;10.77;;;9.43;;
10731;SDS011;74907;42.812;23.216;2024-01-07T08:41:22;8.20;;;7.50;;
10731;SDS011;74907;42.812;23.216;2024-01-07T08:43:51;8.87;;;7.73;;
10731;SDS011;74907;42.812;23.216;2024-01-07T08:46:19;10.80;;;9.63;;
10731;SDS011;74907;42.812;23.216;2024-01-07T08:48:46;13.53;;;9.57;;
10731;SDS011;74907;42.812;23.216;2024-01-07T08:51:13;11.47;;;10.20;;
10731;SDS011;74907;42.812;23.216;2024-01-07T08:53:40;14.33;;;12.67;;
10731;SDS011;74907;42.812;23.216;2024-01-07T08:56:07;23.77;;;19.43;;
10731;SDS011;74907;42.812;23.216;2024-01-07T08:58:34;24.90;;;20.43;;
10731;SDS011;74907;42.812;23.216;2024-01-07T09:01:03;18.97;;;14.90;;
10731;SDS011;74907;42.812;23.216;2024-01-07T09:03:30;12.40;;;11.00;;
10731;SDS011;74907;42.812;23.216;2024-01-07T09:05:57;20.30;;;14.37;;
10731;SDS011;74907;42.812;23.216;2024-01-07T09:08:24;10.70;;;8.50;;
10731;SDS011;74907;42.812;23.216;2024-01-07T09:10:51;12.10;;;10.10;;
10731;SDS011;74907;42.812;23.216;2024-01-07T09:13:17;10.73;;;9.63;;
10731;SDS011;74907;42.812;23.216;2024-01-07T09:15:44;18.60;;;12.00;;
10731;SDS011;74907;42.812;23.216;2024-01-07T09:18:13;17.50;;;11.70;;
10731;SDS011;74907;42.812;23.216;2024-01-07T09:20:40;6.50;;;5.80;;
10731;SDS011;74907;42.812;23.216;2024-01-07T09:23:11;4.03;;;2.93;;
10731;SDS011;74907;42.812;23.216;2024-01-07T09:25:56;3.83;;;2.50;;
10731;SDS011;74907;42.812;23.216;2024-01-07T09:28:22;3.97;;;3.67;;
10731;SDS011;74907;42.812;23.216;2024-01-07T09:30:49;9.33;;;5.87;;
10731;SDS011;74907;42.812;23.216;2024-01-07T09:33:17;10.63;;;4.53;;
10731;SDS011;74907;42.812;23.216;2024-01-07T09:35:48;14.23;;;6.87;;
10731;SDS011;74907;42.812;23.216;2024-01-07T09:38:15;11.77;;;6.90;;
10731;SDS011;74907;42.812;23.216;2024-01-07T09:40:42;5.23;;;4.77;;
10731;SDS011;74907;42.812;23.216;2024-01-07T09:43:09;4.50;;;4.10;;
10731;SDS011;74907;42.812;23.216;2024-01-07T09:45:37;3.27;;;3.03;;
10731;SDS011;74907;42.812;23.216;2024-01-07T09:48:05;4.97;;;4.07;;
10731;SDS011;74907;42.812;23.216;2024-01-07T09:50:33;7.27;;;5.90;;
10731;SDS011;74907;42.812;23.216;2024-01-07T09:53:01;6.20;;;5.60;;
10731;SDS011;74907;42.812;23.216;2024-01-07T09:55:31;5.03;;;4.60;;
10731;SDS011;74907;42.812;23.216;2024-01-07T09:58:01;5.53;;;4.90;;
10731;SDS011;74907;42.812;23.216;2024-01-07T10:00:28;2.77;;;2.43;;
10731;SDS011;74907;42.812;23.216;2024-01-07T10:02:55;3.10;;;2.80;;
10731;SDS011;74907;42.812;23.216;2024-01-07T10:05:22;5.57;;;4.60;;
10731;SDS011;74907;42.812;23.216;2024-01-07T10:07:50;6.23;;;4.23;;
10731;SDS011;74907;42.812;23.216;2024-01-07T10:10:19;3.60;;;3.30;;
10731;SDS011;74907;42.812;23.216;2024-01-07T10:12:49;3.63;;;3.33;;
10731;SDS011;74907;42.812;23.216;2024-01-07T10:15:18;3.40;;;3.10;;
10731;SDS011;74907;42.812;23.216;2024-01-07T10:17:45;3.10;;;2.90;;
10731;SDS011;74907;42.812;23.216;2024-01-07T10:20:13;3.97;;;3.30;;
10731;SDS011;74907;42.812;23.216;2024-01-07T10:22:45;4.63;;;4.23;;
10731;SDS011;74907;42.812;23.216;2024-01-07T10:25:14;5.57;;;5.17;;
10731;SDS011;74907;42.812;23.216;2024-01-07T10:27:42;7.97;;;2.87;;
10731;SDS011;74907;42.812;23.216;2024-01-07T10:30:09;3.23;;;2.20;;
10731;SDS011;74907;42.812;23.216;2024-01-07T10:32:37;4.37;;;3.20;;
10731;SDS011;74907;42.812;23.216;2024-01-07T10:35:04;2.70;;;1.83;;
10731;SDS011;74907;42.812;23.216;2024-01-07T10:37:32;2.83;;;1.20;;
10731;SDS011;74907;42.812;23.216;2024-01-07T10:39:59;4.33;;;2.83;;
10731;SDS011;74907;42.812;23.216;2024-01-07T10:42:31;5.50;;;3.97;;
10731;SDS011;74907;42.812;23.216;2024-01-07T10:44:58;4.63;;;4.23;;
10731;SDS011;74907;42.812;23.216;2024-01-07T10:47:25;4.87;;;3.23;;
10731;SDS011;74907;42.812;23.216;2024-01-07T10:49:55;2.23;;;0.90;;
10731;SDS011;74907;42.812;23.216;2024-01-07T10:52:23;3.53;;;2.23;;
10731;SDS011;74907;42.812;23.216;2024-01-07T10:54:53;0.90;;;0.70;;
10731;SDS011;74907;42.812;23.216;2024-01-07T10:57:27;3.00;;;2.13;;
10731;SDS011;74907;42.812;23.216;2024-01-07T11:00:02;1.50;;;1.00;;
10731;SDS011;74907;42.812;23.216;2024-01-07T11:02:32;4.67;;;2.90;;
10731;SDS011;74907;42.812;23.216;2024-01-07T11:05:08;3.30;;;3.00;;
10731;SDS011;74907;42.812;23.216;2024-01-07T11:07:42;1.93;;;1.00;;
10731;SDS011;74907;42.812;23.216;2024-01-07T11:10:13;2.47;;;1.10;;
10731;SDS011;74907;42.812;23.216;2024-01-07T11:12:47;2.20;;;0.70;;
10731;SDS011;74907;42.812;23.216;2024-01-07T11:18:20;2.90;;;1.03;;
10731;SDS011;74907;42.812;23.216;2024-01-07T11:20:47;2.63;;;1.40;;
10731;SDS011;74907;42.812;23.216;2024-01-07T11:23:27;2.53;;;1.50;;
10731;SDS011;74907;42.812;23.216;2024-01-07T11:25:56;1.27;;;0.80;;
10731;SDS011;74907;42.812;23.216;2024-01-07T11:28:42;3.10;;;1.10;;
10731;SDS011;74907;42.812;23.216;2024-01-07T11:31:11;2.13;;;1.90;;
10731;SDS011;74907;42.812;23.216;2024-01-07T11:33:38;1.73;;;1.00;;
10731;SDS011;74907;42.812;23.216;2024-01-07T11:36:05;1.53;;;0.70;;
10731;SDS011;74907;42.812;23.216;2024-01-07T11:38:33;2.17;;;0.93;;
10731;SDS011;74907;42.812;23.216;2024-01-07T11:41:02;0.80;;;0.70;;
10731;SDS011;74907;42.812;23.216;2024-01-07T11:43:31;3.80;;;0.80;;
10731;SDS011;74907;42.812;23.216;2024-01-07T11:45:59;2.43;;;1.10;;
10731;SDS011;74907;42.812;23.216;2024-01-07T11:48:27;0.93;;;0.80;;
10731;SDS011;74907;42.812;23.216;2024-01-07T11:50:54;3.23;;;0.70;;
10731;SDS011;74907;42.812;23.216;2024-01-07T11:53:21;1.33;;;0.60;;
10731;SDS011;74907;42.812;23.216;2024-01-07T11:55:48;1.80;;;0.90;;
10731;SDS011;74907;42.812;23.216;2024-01-07T11:58:15;2.13;;;0.80;;
10731;SDS011;74907;42.812;23.216;2024-01-07T12:00:42;2.00;;;0.87;;
10731;SDS011;74907;42.812;23.216;2024-01-07T12:03:09;1.43;;;0.90;;
10731;SDS011;74907;42.812;23.216;2024-01-07T12:05:38;2.43;;;1.00;;
10731;SDS011;74907;42.812;23.216;2024-01-07T12:08:05;3.70;;;1.00;;
10731;SDS011;74907;42.812;23.216;2024-01-07T12:10:32;2.07;;;1.03;;
10731;SDS011;74907;42.812;23.216;2024-01-07T12:13:00;2.20;;;2.00;;
10731;SDS011;74907;42.812;23.216;2024-01-07T12:15:28;5.23;;;2.90;;
10731;SDS011;74907;42.812;23.216;2024-01-07T12:17:56;2.97;;;1.70;;
10731;SDS011;74907;42.812;23.216;2024-01-07T12:20:25;1.80;;;1.20;;
10731;SDS011;74907;42.812;23.216;2024-01-07T12:22:54;3.27;;;1.20;;
10731;SDS011;74907;42.812;23.216;2024-01-07T12:25:22;1.73;;;1.33;;
10731;SDS011;74907;42.812;23.216;2024-01-07T12:27:50;2.43;;;1.17;;
10731;SDS011;74907;42.812;23.216;2024-01-07T12:30:23;1.47;;;1.37;;
10731;SDS011;74907;42.812;23.216;2024-01-07T12:35:44;63.03;;;46.73;;
10731;SDS011;74907;42.812;23.216;2024-01-07T12:38:12;135.10;;;106.73;;
10731;SDS011;74907;42.812;23.216;2024-01-07T12:40:40;12.47;;;10.63;;
10731;SDS011;74907;42.812;23.216;2024-01-07T12:43:07;5.97;;;5.43;;
10731;SDS011;74907;42.812;23.216;2024-01-07T12:45:34;5.90;;;5.30;;
10731;SDS011;74907;42.812;23.216;2024-01-07T12:48:01;9.03;;;7.40;;
10731;SDS011;74907;42.812;23.216;2024-01-07T12:50:28;4.30;;;4.00;;
10731;SDS011;74907;42.812;23.216;2024-01-07T12:52:56;4.13;;;3.37;;
10731;SDS011;74907;42.812;23.216;2024-01-07T12:55:25;6.67;;;4.90;;
10731;SDS011;74907;42.812;23.216;2024-01-07T12:57:52;9.47;;;7.33;;
10731;SDS011;74907;42.812;23.216;2024-01-07T13:00:20;12.73;;;8.73;;
10731;SDS011;74907;42.812;23.216;2024-01-07T13:02:49;8.47;;;6.37;;
10731;SDS011;74907;42.812;23.216;2024-01-07T13:07:54;11.30;;;7.17;;
10731;SDS011;74907;42.812;23.216;2024-01-07T13:10:21;6.70;;;4.70;;
10731;SDS011;74907;42.812;23.216;2024-01-07T13:12:49;3.50;;;2.73;;
10731;SDS011;74907;42.812;23.216;2024-01-07T13:15:16;7.47;;;3.40;;
10731;SDS011;74907;42.812;23.216;2024-01-07T13:17:43;4.13;;;3.83;;
10731;SDS011;74907;42.812;23.216;2024-01-07T13:20:09;9.23;;;3.50;;
10731;SDS011;74907;42.812;23.216;2024-01-07T13:22:36;3.40;;;2.83;;
10731;SDS011;74907;42.812;23.216;2024-01-07T13:25:03;8.90;;;5.73;;
10731;SDS011;74907;42.812;23.216;2024-01-07T13:27:31;12.40;;;8.37;;
10731;SDS011;74907;42.812;23.216;2024-01-07T13:29:59;6.17;;;4.03;;
10731;SDS011;74907;42.812;23.216;2024-01-07T13:32:26;6.20;;;4.47;;
10731;SDS011;74907;42.812;23.216;2024-01-07T13:34:53;8.73;;;6.47;;
10731;SDS011;74907;42.812;23.216;2024-01-07T13:37:20;7.43;;;6.43;;
10731;SDS011;74907;42.812;23.216;2024-01-07T13:39:56;7.17;;;5.43;;
10731;SDS011;74907;42.812;23.216;2024-01-07T13:42:23;14.70;;;10.37;;
10731;SDS011;74907;42.812;23.216;2024-01-07T13:44:49;9.20;;;8.30;;
10731;SDS011;74907;42.812;23.216;2024-01-07T13:47:18;8.40;;;6.00;;
10731;SDS011;74907;42.812;23.216;2024-01-07T13:49:45;7.10;;;6.10;;
10731;SDS011;74907;42.812;23.216;2024-01-07T13:52:12;5.40;;;4.90;;
10731;SDS011;74907;42.812;23.216;2024-01-07T13:54:39;6.37;;;5.73;;
10731;SDS011;74907;42.812;23.216;2024-01-07T13:57:06;6.23;;;5.73;;
10731;SDS011;74907;42.812;23.216;2024-01-07T13:59:33;9.33;;;5.07;;
10731;SDS011;74907;42.812;23.216;2024-01-07T14:02:03;5.27;;;4.30;;
10731;SDS011;74907;42.812;23.216;2024-01-07T14:04:32;5.13;;;4.37;;
10731;SDS011;74907;42.812;23.216;2024-01-07T14:06:59;4.57;;;3.90;;
10731;SDS011;74907;42.812;23.216;2024-01-07T14:09:27;3.37;;;3.07;;
10731;SDS011;74907;42.812;23.216;2024-01-07T14:12:05;4.40;;;3.93;;
10731;SDS011;74907;42.812;23.216;2024-01-07T14:14:40;7.33;;;3.47;;
10731;SDS011;74907;42.812;23.216;2024-01-07T14:17:07;4.17;;;3.40;;
10731;SDS011;74907;42.812;23.216;2024-01-07T14:19:38;3.63;;;3.10;;
10731;SDS011;74907;42.812;23.216;2024-01-07T14:22:13;6.47;;;3.33;;
10731;SDS011;74907;42.812;23.216;2024-01-07T14:24:41;4.23;;;3.90;;
10731;SDS011;74907;42.812;23.216;2024-01-07T14:27:16;5.17;;;3.57;;
10731;SDS011;74907;42.812;23.216;2024-01-07T14:29:44;3.97;;;3.17;;
10731;SDS011;74907;42.812;23.216;2024-01-07T14:32:14;5.00;;;3.80;;
10731;SDS011;74907;42.812;23.216;2024-01-07T14:34:43;6.37;;;3.63;;
10731;SDS011;74907;42.812;23.216;2024-01-07T14:37:10;12.17;;;8.23;;
10731;SDS011;74907;42.812;23.216;2024-01-07T14:39:40;9.77;;;6.53;;
10731;SDS011;74907;42.812;23.216;2024-01-07T14:42:23;6.77;;;5.30;;
10731;SDS011;74907;42.812;23.216;2024-01-07T14:44:51;8.67;;;5.10;;
10731;SDS011;74907;42.812;23.216;2024-01-07T14:47:23;6.73;;;5.00;;